ADDS METAR Data INFO
IDs: Format: Raw Decoded Include TAF

Data at: 1134 UTC 17 Jul 2018

KCCY 171115Z AUTO 01006KT 10SM CLR 17/15 A3011 RMK AO2
KCCY 171055Z AUTO 00000KT 10SM CLR 16/15 A3010 RMK AO2
KCCY 171035Z AUTO 36004KT 10SM CLR 17/15 A3009 RMK AO2
KCCY 171015Z AUTO 35003KT 17/15 A3009 RMK AO2
KCCY 170955Z AUTO 25004KT 10SM CLR 17/15 A3008 RMK AO2
KCCY 170935Z AUTO 30004KT 10SM CLR 17/16 A3009 RMK AO2
KCCY 170915Z AUTO 30004KT 10SM CLR 17/16 A3008 RMK AO2
KCCY 170855Z AUTO 29004KT 10SM CLR 17/16 A3008 RMK AO2
KCCY 170835Z AUTO 30004KT 10SM FEW100 17/16 A3008 RMK AO2
KCCY 170815Z AUTO 30003KT 10SM CLR 17/16 A3007 RMK AO2
KCCY 170755Z AUTO 30003KT 10SM CLR 18/16 A3007 RMK AO2
KCCY 170735Z AUTO 29003KT 10SM SCT095 18/17 A3008 RMK AO2
KCCY 170715Z AUTO 00000KT 10SM BKN095 18/17 A3009 RMK AO2
KCCY 170655Z AUTO 26003KT 10SM CLR 18/17 A3009 RMK AO2
KCCY 170635Z AUTO 27004KT 10SM CLR 18/16 A3009 RMK AO2
KCCY 170615Z AUTO 27003KT 10SM CLR 18/17 A3009 RMK AO2
KCCY 170555Z AUTO 29003KT 10SM CLR 19/17 A3008 RMK AO2
KCCY 170535Z AUTO 29003KT 10SM CLR 19/17 A3008 RMK AO2
KCCY 170515Z AUTO 29003KT 10SM CLR 19/17 A3008 RMK AO2
KCCY 170455Z AUTO 28003KT 10SM CLR 18/17 A3008 RMK AO2
KCCY 170435Z AUTO 26003KT 10SM CLR 19/17 A3008 RMK AO2
KCCY 170415Z AUTO 00000KT 10SM CLR 20/17 A3008 RMK AO2
KCCY 170355Z AUTO 00000KT 10SM CLR 20/18 A3008 RMK AO2
KCCY 170335Z AUTO 00000KT 10SM CLR 20/18 A3007 RMK AO2
KCCY 170315Z AUTO 00000KT 10SM CLR 21/18 A3008 RMK AO2
KCCY 170255Z AUTO 32003KT 10SM CLR 21/17 A3007 RMK AO2
KCCY 170235Z AUTO 32003KT 10SM CLR 21/18 A3006 RMK AO2
KCCY 170215Z AUTO 00000KT 10SM CLR 22/18 A3005 RMK AO2
KCCY 170155Z AUTO 00000KT 10SM CLR 22/18 A3004 RMK AO2
KCCY 170135Z AUTO 00000KT 10SM CLR 23/18 A3003 RMK AO2
KCCY 170115Z AUTO 33004KT 10SM CLR 24/17 A3003 RMK AO2
KCCY 170055Z AUTO 32003KT 10SM CLR 25/18 A3004 RMK AO2
KCCY 170035Z AUTO 31004KT 10SM CLR 25/17 A3004 RMK AO2
KCCY 170015Z AUTO 33004KT 10SM CLR 26/16 A3004 RMK AO2
KCCY 162355Z AUTO 32005KT 10SM CLR 26/16 A3004 RMK AO2
KCCY 162335Z AUTO 33007KT 10SM CLR 26/16 A3004 RMK AO2
KCCY 162315Z AUTO 33007KT 10SM CLR 26/15 A3004 RMK AO2
KCCY 162255Z AUTO 32007KT 10SM CLR 26/14 A3004 RMK AO2
KCCY 162235Z AUTO 32008KT 10SM CLR 26/15 A3005 RMK AO2
KCCY 162215Z AUTO 31007KT 10SM CLR 27/16 A3005 RMK AO2
KCCY 162155Z AUTO 33005KT 10SM CLR 27/15 A3005 RMK AO2
KCCY 162135Z AUTO 32006G11KT 10SM CLR 27/14 A3005 RMK AO2
KCCY 162115Z AUTO 34003KT 10SM CLR 26/15 A3006 RMK AO2
KCCY 162055Z AUTO 35006KT 10SM CLR 27/15 A3005 RMK AO2
KCCY 162035Z AUTO VRB05KT 10SM CLR 26/14 A3006 RMK AO2
KCCY 162015Z AUTO 32004G10KT 10SM CLR 26/14 A3006 RMK AO2
KCCY 161955Z AUTO 8/08333308KT 10SM CLR 26/14 A3006 RMK AO2
KCCY 161935Z AUTO 02007KT 10SM CLR 26/14 A3006 RMK AO2
KCCY 161915Z AUTO 35006G13KT 10SM CLR 26/14 A3007 RMK AO2
KCCY 161855Z AUTO 36008KT 10SM CLR 26/14 A3007 RMK AO2
KCCY 161835Z AUTO VRB06KT 10SM CLR 26/15 A3008 RMK AO2
KCCY 161815Z AUTO 01007KT 10SM CLR 26/14 A3008 RMK AO2
KCCY 161755Z AUTO 33007KT 10SM CLR 25/14 A3008 RMK AO2
KCCY 161735Z AUTO 36008KT 10SM CLR 25/14 A3009 RMK AO2
KCCY 161715Z AUTO 34007KT 10SM CLR 25/14 A3009 RMK AO2
KCCY 161655Z AUTO 35006G12KT 10SM CLR 24/14 A3009 RMK AO2
KCCY 161635Z AUTO 35007KT 320V020 10SM CLR 24/15 A3009 RMK AO2
KCCY 161615Z AUTO 01007G13KT 10SM CLR 24/15 A3009 RMK AO2
KCCY 161555Z AUTO 9/20833309KT 10SM CLR 24/15 A3009 RMK AO2
KCCY 161535Z AUTO 02010KT 10SM CLR 23/15 A3008 RMK AO2
KCCY 161515Z AUTO 35011KT 10SM CLR 23/15 A3009 RMK AO2
KCCY 161455Z AUTO 02008KT CLR 23/16 A3008 RMK AO2
KCCY 161435Z AUTO 36009G15KT 10SM CLR 22/16 A3007 RMK AO2
KCCY 161415Z AUTO 35011KT 10SM CLR 22/16 A3008 RMK AO2
KCCY 161355Z AUTO 36010KT 10SM FEW120 21/16 A3007 RMK AO2
KCCY 161335Z AUTO 36009KT 10SM SCT120 21/16 A3006 RMK AO2
KCCY 161315Z AUTO 36009KT 10SM SCT120 21/16 A3006 RMK AO2
KCCY 161255Z AUTO 35008KT 10SM CLR 20/17 A3006 RMK AO2
KCCY 161235Z AUTO 36008KT 10SM CLR 20/16 A3005 RMK AO2
KCCY 161215Z AUTO 36009KT 10SM BKN130 20/16 A3005 RMK AO2
KCCY 161155Z AUTO 35008KT 10SM OVC130 20/17 A3005 RMK AO2
KCCY 161135Z AUTO 35009KT 10SM OVC130 20/18 A3004 RMK AO2
KCCY 161115Z AUTO 35009KT 10SM FEW110 OVC130 20/18 A3004 RMK AO2
KCCY 161055Z AUTO 34007KT 10SM FEW110 OVC140 20/18 A3003 RMK AO2
KCCY 161035Z AUTO 34008KT 10SM SCT140 BKN170 OVC190 20/18 A3003 RMK AO2
KCCY 161015Z AUTO 34007KT 10SM SCT160 BKN180 OVC200 20/19 A3002 RMK AO2
KCCY 160955Z AUTO 34010KT 10SM FEW160 OVC180 20/19 A3002 RMK AO2
KCCY 160935Z AUTO 33010KT 10SM SCT160 BKN180 BKN200 20/19 A3002 RMK AO2
KCCY 160915Z AUTO 32008G15KT 10SM BKN160 OVC180 21/19 A3002 RMK AO2
KCCY 160855Z AUTO 33009KT 10SM OVC170 21/20 A3001 RMK AO2
KCCY 160835Z AUTO 32008KT 10SM BKN170 OVC190 21/20 A3001 RMK AO2
KCCY 160815Z AUTO 32007KT 10SM SCT170 BKN190 OVC220 22/20 A3000 RMK AO2
KCCY 160755Z AUTO 33007KT 10SM FEW190 OVC210 22/21 A3000 RMK AO2
KCCY 160735Z AUTO 34007KT 10SM SCT190 BKN210 22/21 A3000 RMK AO2
KCCY 160715Z AUTO 34008KT 10SM BKN190 BKN210 22/21 A3001 RMK AO2
KCCY 160655Z AUTO 34007KT 10SM SCT190 OVC210 22/21 A3001 RMK AO2
KCCY 160635Z AUTO 33008KT 10SM OVC210 22/21 A3001 RMK AO2
KCCY 160615Z AUTO 33008KT 10SM SCT210 BKN250 BKN270 22/21 A3001 RMK AO2
KCCY 160555Z AUTO 33007KT 10SM FEW270 22/21 A3001 RMK AO2
KCCY 160535Z AUTO 32006KT 10SM FEW090 23/21 A3001 RMK AO2
KCCY 160515Z AUTO 32007KT 10SM BKN085 23/21 A3001 RMK AO2
KCCY 160455Z AUTO 33005KT 10SM BKN085 23/21 A3000 RMK AO2
KCCY 160435Z AUTO 33004KT 10SM CLR 23/21 A3000 RMK AO2
KCCY 160415Z AUTO 34005KT 10SM CLR 23/21 A2999 RMK AO2
KCCY 160355Z AUTO 33006KT 10SM CLR 24/22 A2999 RMK AO2
KCCY 160335Z AUTO 32004KT 10SM CLR 24/22 A2999 RMK AO2
KCCY 160315Z AUTO 33005KT 10SM CLR 24/22 A2999 RMK AO2
KCCY 160255Z AUTO 34004KT 10SM CLR 24/22 A2998 RMK AO2
KCCY 160235Z AUTO 34004KT 10SM CLR 25/23 A2998 RMK AO2
KCCY 160215Z AUTO 33004KT 10SM CLR 25/23 A2997 RMK AO2
KCCY 160155Z AUTO 34006KT 10SM CLR 25/23 A2997 RMK AO2
KCCY 160135Z AUTO 32006KT 10SM FEW041 FEW060 FEW070 27/23 A2997 RMK AO2
KCCY 160115Z AUTO 31004KT 10SM SCT038 BKN046 BKN055 28/24 A2996 RMK AO2
KCCY 160055Z AUTO 00000KT 10SM BKN039 BKN046 BKN055 27/25 A2996 RMK AO2
KCCY 160035Z AUTO 00000KT 10SM FEW034 SCT042 SCT055 28/24 A2996 RMK AO2
KCCY 160015Z AUTO 00000KT 10SM SCT034 BKN041 BKN055 28/24 A2996 RMK AO2
KCCY 152355Z AUTO 18003KT 10SM SCT034 BKN040 BKN048 28/24 A2996 RMK AO2
KCCY 152335Z AUTO 00000KT 10SM CLR 29/23 A2996 RMK AO2